Time;durP1;ratioP1;P1;durP2;ratioP2;P2;SDS_P1;SDS_P2;PMS_P1;PMS_P2;Temp;Humidity;BMP_temperature;BMP_pressure;BME280_temperature;BME280_humidity;BME280_pressure;Samples;Min_cycle;Max_cycle;Signal;HPM_P1;HPM_P2
2023/05/18 00:00:01;;;;;;;5.22;4.72;;;17.70;1.00;;;;;;5051753;28;20429;-63
2023/05/18 00:02:27;;;;;;;4.93;4.35;;;17.70;1.00;;;;;;5053560;28;20502;-63
2023/05/18 00:04:52;;;;;;;5.07;4.57;;;17.70;1.00;;;;;;5053101;28;20055;-63
2023/05/18 00:07:18;;;;;;;5.10;4.63;;;17.70;1.00;;;;;;5052124;28;20041;-63
2023/05/18 00:09:43;;;;;;;5.70;4.60;;;17.70;1.00;;;;;;5053153;28;20024;-63
2023/05/18 00:12:09;;;;;;;5.38;4.60;;;17.70;1.00;;;;;;5050956;28;20060;-63
2023/05/18 00:14:35;;;;;;;6.53;5.20;;;17.70;1.00;;;;;;5052028;28;20517;-63
2023/05/18 00:17:01;;;;;;;5.72;5.20;;;17.70;1.00;;;;;;5052017;28;20422;-63
2023/05/18 00:19:28;;;;;;;5.22;4.72;;;17.70;1.00;;;;;;5051979;28;20029;-63
2023/05/18 00:21:54;;;;;;;5.15;4.65;;;17.70;1.00;;;;;;5050359;28;20040;-62
2023/05/18 00:24:21;;;;;;;5.05;4.55;;;17.70;1.00;;;;;;5053001;28;20033;-63
2023/05/18 00:26:50;;;;;;;7.00;4.85;;;17.60;1.00;;;;;;5049675;28;20094;-63
2023/05/18 00:29:16;;;;;;;7.88;4.88;;;17.60;1.00;;;;;;5051488;28;20036;-63
2023/05/18 00:31:44;;;;;;;5.60;4.70;;;17.60;1.00;;;;;;5051812;28;20017;-63
2023/05/18 00:34:11;;;;;;;4.75;4.25;;;17.60;1.00;;;;;;5051101;28;20120;-63
2023/05/18 00:36:37;;;;;;;5.43;4.88;;;17.60;1.00;;;;;;5051370;28;20137;-63
2023/05/18 00:39:04;;;;;;;4.85;4.45;;;17.60;1.00;;;;;;5051389;28;20051;-63
2023/05/18 00:41:31;;;;;;;5.50;4.95;;;17.60;1.00;;;;;;5050595;28;20021;-63
2023/05/18 00:43:57;;;;;;;6.18;4.85;;;17.50;1.00;;;;;;5052462;28;20029;-63
2023/05/18 00:46:24;;;;;;;5.30;4.47;;;17.50;1.00;;;;;;5052257;28;20021;-63
2023/05/18 00:48:50;;;;;;;5.18;4.72;;;17.50;1.00;;;;;;5052260;28;20033;-64
2023/05/18 00:51:18;;;;;;;6.40;5.10;;;17.50;1.00;;;;;;5049033;28;20029;-63
2023/05/18 00:53:45;;;;;;;6.65;5.53;;;17.50;1.00;;;;;;5052275;28;20029;-63
2023/05/18 00:56:11;;;;;;;7.68;5.22;;;17.40;1.00;;;;;;5048900;28;20040;-63
2023/05/18 00:58:40;;;;;;;6.00;5.43;;;17.50;1.00;;;;;;5052493;28;20029;-63
2023/05/18 01:01:05;;;;;;;7.03;5.60;;;17.50;1.00;;;;;;5050489;28;20017;-63
2023/05/18 01:03:38;;;;;;;6.25;5.43;;;17.50;1.00;;;;;;5051135;28;20390;-63
2023/05/18 01:06:05;;;;;;;6.47;5.25;;;17.50;1.00;;;;;;5049442;28;20498;-63
2023/05/18 01:08:32;;;;;;;5.57;5.15;;;17.50;1.00;;;;;;5049176;28;20092;-63
2023/05/18 01:11:17;;;;;;;6.18;5.35;;;17.50;1.00;;;;;;5048008;28;20028;-63
2023/05/18 01:14:21;;;;;;;6.10;5.40;;;17.50;1.00;;;;;;5050666;28;20036;-63
2023/05/18 01:17:01;;;;;;;6.95;6.05;;;17.40;1.00;;;;;;5049585;28;20056;-63
2023/05/18 01:19:41;;;;;;;7.50;5.25;;;17.40;1.00;;;;;;5050551;28;20052;-63
2023/05/18 01:22:25;;;;;;;5.72;5.22;;;17.40;1.00;;;;;;5048587;28;20116;-63
2023/05/18 01:24:56;;;;;;;7.75;6.40;;;17.40;1.00;;;;;;5044737;28;20043;-63
2023/05/18 01:27:24;;;;;;;6.85;6.15;;;17.40;1.00;;;;;;5043462;28;20029;-63
2023/05/18 01:29:53;;;;;;;6.05;5.55;;;17.40;1.00;;;;;;5043494;28;20083;-63
2023/05/18 01:32:20;;;;;;;6.72;5.75;;;17.40;1.00;;;;;;5049647;28;20031;-63
2023/05/18 01:34:46;;;;;;;7.20;5.90;;;17.40;1.00;;;;;;5051938;28;20086;-63
2023/05/18 01:37:12;;;;;;;7.72;6.78;;;17.40;1.00;;;;;;5048328;28;20067;-62
2023/05/18 01:39:38;;;;;;;7.00;6.35;;;17.30;1.00;;;;;;5051578;28;20463;-63
2023/05/18 01:42:14;;;;;;;7.10;6.50;;;17.30;1.00;;;;;;5049549;28;20032;-63
2023/05/18 01:44:46;;;;;;;8.20;6.15;;;17.40;1.00;;;;;;5030527;28;20079;-63
2023/05/18 01:47:17;;;;;;;6.55;5.88;;;17.40;1.00;;;;;;5048193;28;20075;-63
2023/05/18 01:49:58;;;;;;;7.13;6.18;;;17.40;1.00;;;;;;5050801;28;20108;-63
2023/05/18 01:52:50;;;;;;;8.10;6.40;;;17.30;1.00;;;;;;5051637;28;20040;-63
2023/05/18 01:55:18;;;;;;;8.75;6.35;;;17.40;1.00;;;;;;5050447;28;20082;-63
2023/05/18 01:57:45;;;;;;;8.02;6.38;;;17.30;1.00;;;;;;5049498;28;20376;-63
2023/05/18 02:00:12;;;;;;;7.63;6.60;;;17.30;1.00;;;;;;5040397;28;20024;-63
2023/05/18 02:02:37;;;;;;;7.68;6.97;;;17.30;1.00;;;;;;5050804;28;20043;-63
2023/05/18 02:05:04;;;;;;;14.68;7.45;;;17.30;1.00;;;;;;5051971;28;20017;-63
2023/05/18 02:07:30;;;;;;;6.97;6.28;;;17.30;1.00;;;;;;5050293;28;20036;-63
2023/05/18 02:09:56;;;;;;;8.25;6.72;;;17.30;1.00;;;;;;5050433;28;20379;-63
2023/05/18 02:12:21;;;;;;;9.55;7.63;;;17.30;1.00;;;;;;5043143;28;20029;-63
2023/05/18 02:14:47;;;;;;;8.52;7.68;;;17.30;1.00;;;;;;5051630;28;20067;-63
2023/05/18 02:17:13;;;;;;;7.72;7.03;;;17.30;1.00;;;;;;5050428;28;20048;-63
2023/05/18 02:19:38;;;;;;;8.25;6.95;;;17.30;1.00;;;;;;5049549;28;20075;-63
2023/05/18 02:22:08;;;;;;;8.25;7.32;;;17.30;1.00;;;;;;5055513;28;20490;-63
2023/05/18 02:24:34;;;;;;;8.90;8.00;;;17.30;1.00;;;;;;5055007;28;20029;-63
2023/05/18 02:27:00;;;;;;;8.60;7.70;;;17.30;1.00;;;;;;5055102;28;20028;-63
2023/05/18 02:29:25;;;;;;;9.07;8.18;;;17.30;1.00;;;;;;5052417;28;20041;-63
2023/05/18 02:31:51;;;;;;;9.05;8.07;;;17.20;1.00;;;;;;5054818;28;20032;-63
2023/05/18 02:34:17;;;;;;;9.23;8.18;;;17.30;1.00;;;;;;5052565;28;20465;-63
2023/05/18 02:36:45;;;;;;;9.98;7.93;;;17.30;1.00;;;;;;5053612;28;20510;-63
2023/05/18 02:39:11;;;;;;;9.02;8.13;;;17.30;1.00;;;;;;5051338;28;20027;-63
2023/05/18 02:41:37;;;;;;;7.97;7.18;;;17.30;1.00;;;;;;5054650;28;20023;-63
2023/05/18 02:44:03;;;;;;;9.27;8.27;;;17.30;1.00;;;;;;5054340;28;20075;-63
2023/05/18 02:46:29;;;;;;;8.52;7.63;;;17.30;1.00;;;;;;5054948;28;20120;-63
2023/05/18 02:48:55;;;;;;;8.88;7.78;;;17.20;1.00;;;;;;5054368;28;20096;-63
2023/05/18 02:51:21;;;;;;;8.02;7.25;;;17.30;1.00;;;;;;5048648;28;20104;-63
2023/05/18 02:53:47;;;;;;;9.23;8.20;;;17.20;1.00;;;;;;5054273;28;20123;-63
2023/05/18 02:56:13;;;;;;;8.70;7.80;;;17.30;1.00;;;;;;5054617;28;20534;-63
2023/05/18 02:58:39;;;;;;;9.38;7.95;;;17.30;1.00;;;;;;5054207;28;20043;-63
2023/05/18 03:01:08;;;;;;;10.27;8.65;;;17.30;1.00;;;;;;5051665;28;20029;-63
2023/05/18 03:03:34;;;;;;;10.93;9.52;;;17.30;1.00;;;;;;5054050;28;20116;-63
2023/05/18 03:06:04;;;;;;;9.93;8.88;;;17.30;1.00;;;;;;5050039;28;20029;-63
2023/05/18 03:08:30;;;;;;;10.18;9.02;;;17.20;1.00;;;;;;5054558;28;20115;-63
2023/05/18 03:10:56;;;;;;;10.82;9.73;;;17.30;1.00;;;;;;5053346;28;20044;-63
2023/05/18 03:13:22;;;;;;;10.07;8.93;;;17.30;1.00;;;;;;5052967;28;20025;-63
2023/05/18 03:15:49;;;;;;;10.68;9.57;;;17.30;1.00;;;;;;5054508;28;20537;-63
2023/05/18 03:18:16;;;;;;;11.88;9.40;;;17.20;1.00;;;;;;5053784;28;20043;-63
2023/05/18 03:20:42;;;;;;;13.05;10.75;;;17.20;1.00;;;;;;5053021;28;20021;-63
2023/05/18 03:23:08;;;;;;;14.15;11.10;;;17.20;1.00;;;;;;5053862;28;20453;-63
2023/05/18 03:25:36;;;;;;;12.85;11.55;;;17.30;1.00;;;;;;5053042;28;20123;-63
2023/05/18 03:28:03;;;;;;;12.88;11.57;;;17.20;1.00;;;;;;5054079;28;20474;-63
2023/05/18 03:30:31;;;;;;;15.25;11.77;;;17.20;1.00;;;;;;5053497;28;20143;-63
2023/05/18 03:32:58;;;;;;;13.75;11.82;;;17.20;1.00;;;;;;5044389;28;20501;-63
2023/05/18 03:35:23;;;;;;;16.08;11.90;;;17.20;1.00;;;;;;5050705;28;20025;-63
2023/05/18 03:37:49;;;;;;;13.10;11.65;;;17.20;1.00;;;;;;5047422;28;20048;-63
2023/05/18 03:40:15;;;;;;;13.52;11.73;;;17.10;1.00;;;;;;5048595;28;20040;-63
2023/05/18 03:42:42;;;;;;;15.02;12.05;;;17.10;1.00;;;;;;5046517;28;20525;-63
2023/05/18 03:45:09;;;;;;;15.25;13.65;;;17.10;1.00;;;;;;5051824;28;20036;-63
2023/05/18 03:47:35;;;;;;;17.55;13.82;;;17.10;1.00;;;;;;5051768;28;20040;-63
2023/05/18 03:50:02;;;;;;;16.13;13.82;;;17.10;1.00;;;;;;5053565;28;20021;-63
2023/05/18 03:52:28;;;;;;;15.55;14.00;;;17.10;1.00;;;;;;5053874;28;20032;-63
2023/05/18 03:54:55;;;;;;;16.92;15.23;;;17.10;1.00;;;;;;5052097;28;20445;-63
2023/05/18 03:57:21;;;;;;;16.67;13.55;;;17.10;1.00;;;;;;5050783;28;20041;-63
2023/05/18 03:59:47;;;;;;;17.25;15.20;;;17.10;1.00;;;;;;5053190;28;20025;-64
2023/05/18 04:02:15;;;;;;;18.83;15.00;;;17.10;1.00;;;;;;5051294;28;20376;-63
2023/05/18 04:04:44;;;;;;;18.38;15.07;;;17.00;1.00;;;;;;5053252;28;20083;-63
2023/05/18 04:07:17;;;;;;;16.35;14.70;;;17.10;1.00;;;;;;5052302;28;20110;-63
2023/05/18 04:09:43;;;;;;;16.90;15.05;;;17.00;1.00;;;;;;5050747;28;20034;-63
2023/05/18 04:12:10;;;;;;;18.70;16.05;;;17.00;1.00;;;;;;5052542;28;20082;-63
2023/05/18 04:14:36;;;;;;;18.20;15.73;;;17.00;1.00;;;;;;5052886;28;20017;-63
2023/05/18 04:17:05;;;;;;;16.75;15.02;;;17.00;1.00;;;;;;5053247;28;20044;-63
2023/05/18 04:19:34;;;;;;;18.27;15.65;;;17.00;1.00;;;;;;5051782;28;20025;-63
2023/05/18 04:22:03;;;;;;;16.52;14.85;;;16.90;1.00;;;;;;5052073;28;20531;-63
2023/05/18 04:24:33;;;;;;;16.58;14.82;;;16.90;1.00;;;;;;5052876;28;20028;-63
2023/05/18 04:26:59;;;;;;;17.92;15.27;;;16.90;1.00;;;;;;5052606;28;20490;-63
2023/05/18 04:29:27;;;;;;;17.70;14.98;;;16.90;1.00;;;;;;5052248;28;20096;-63
2023/05/18 04:31:58;;;;;;;16.50;14.50;;;16.90;1.00;;;;;;5049138;28;20036;-63
2023/05/18 04:34:25;;;;;;;16.77;14.98;;;16.90;1.00;;;;;;5050607;28;20254;-63
2023/05/18 04:36:53;;;;;;;17.80;15.43;;;16.80;1.00;;;;;;5051510;28;20041;-63
2023/05/18 04:39:19;;;;;;;17.02;14.25;;;16.80;1.00;;;;;;5052769;28;20036;-63
2023/05/18 04:41:45;;;;;;;15.10;13.50;;;16.80;1.00;;;;;;5049412;28;20158;-63
2023/05/18 04:44:12;;;;;;;17.38;15.48;;;16.80;1.00;;;;;;5051177;28;20482;-63
2023/05/18 04:46:39;;;;;;;17.63;15.00;;;16.80;1.00;;;;;;5051117;28;20024;-63
2023/05/18 04:49:05;;;;;;;16.45;14.40;;;16.80;1.00;;;;;;5052312;28;20071;-63
2023/05/18 04:51:33;;;;;;;15.82;14.23;;;16.90;1.00;;;;;;5050560;28;20025;-64
2023/05/18 04:54:00;;;;;;;16.25;14.55;;;16.80;1.00;;;;;;5042606;28;20029;-63
2023/05/18 04:56:25;;;;;;;16.13;14.45;;;16.90;1.00;;;;;;5052322;28;20017;-64
2023/05/18 04:58:51;;;;;;;15.70;14.10;;;16.90;1.00;;;;;;5052572;28;20086;-64
2023/05/18 05:01:17;;;;;;;16.40;14.68;;;16.90;1.00;;;;;;5050357;28;20079;-64
2023/05/18 05:03:43;;;;;;;18.75;15.70;;;16.90;1.00;;;;;;5051182;28;20116;-64
2023/05/18 05:06:10;;;;;;;17.35;14.68;;;16.80;1.00;;;;;;5052644;28;20051;-63
2023/05/18 05:08:36;;;;;;;17.88;15.98;;;16.80;1.00;;;;;;5051955;28;20032;-63
2023/05/18 05:11:02;;;;;;;17.20;15.18;;;16.90;1.00;;;;;;5050588;28;20399;-64
2023/05/18 05:13:28;;;;;;;17.35;15.50;;;16.90;1.00;;;;;;5051175;28;20035;-64
2023/05/18 05:15:54;;;;;;;16.83;14.98;;;16.90;1.00;;;;;;5049758;28;20414;-63
2023/05/18 05:18:20;;;;;;;17.52;15.40;;;16.90;1.00;;;;;;5051902;28;20037;-63
2023/05/18 05:20:46;;;;;;;15.82;14.23;;;16.90;1.00;;;;;;5050810;28;20029;-63
2023/05/18 05:23:12;;;;;;;16.48;14.77;;;16.90;1.00;;;;;;5051380;28;20036;-63
2023/05/18 05:25:38;;;;;;;19.42;16.60;;;17.00;1.00;;;;;;5049626;28;20033;-63
2023/05/18 05:28:03;;;;;;;15.90;14.38;;;16.90;1.00;;;;;;5051876;28;20112;-64
2023/05/18 05:30:29;;;;;;;17.00;15.30;;;16.90;1.00;;;;;;5050521;28;20120;-63
2023/05/18 05:32:55;;;;;;;18.30;15.82;;;16.90;1.00;;;;;;5051744;28;20029;-64
2023/05/18 05:35:21;;;;;;;15.60;13.98;;;16.80;1.00;;;;;;5052050;28;20033;-63
2023/05/18 05:37:46;;;;;;;17.45;15.63;;;16.80;1.00;;;;;;5049666;28;20053;-63
2023/05/18 05:40:12;;;;;;;16.77;15.15;;;16.80;1.00;;;;;;5051800;28;20064;-63
2023/05/18 05:42:38;;;;;;;17.25;14.80;;;16.90;1.00;;;;;;5051421;28;20032;-63
2023/05/18 05:45:04;;;;;;;16.23;14.43;;;16.90;1.00;;;;;;5047638;28;20116;-63
2023/05/18 05:47:30;;;;;;;15.57;13.05;;;16.90;1.00;;;;;;5049228;28;20031;-63
2023/05/18 05:49:56;;;;;;;15.25;13.65;;;16.80;1.00;;;;;;5052747;28;20021;-63
2023/05/18 05:52:21;;;;;;;11.95;10.65;;;16.90;1.00;;;;;;5047952;28;20040;-63
2023/05/18 05:54:47;;;;;;;9.80;7.95;;;16.80;1.00;;;;;;5054461;28;20074;-63
2023/05/18 05:57:13;;;;;;;10.45;9.13;;;16.80;1.00;;;;;;5055608;28;20154;-63
2023/05/18 05:59:38;;;;;;;7.32;6.53;;;16.70;1.00;;;;;;5054896;28;20506;-63
2023/05/18 06:02:04;;;;;;;7.32;5.85;;;16.70;1.00;;;;;;5053341;28;20113;-63
2023/05/18 06:04:30;;;;;;;6.40;5.55;;;16.70;1.00;;;;;;5056127;28;20474;-63
2023/05/18 06:06:56;;;;;;;8.73;5.85;;;16.70;1.00;;;;;;5055763;28;20494;-63
2023/05/18 06:09:22;;;;;;;8.15;4.75;;;16.80;1.00;;;;;;5055051;28;20029;-63
2023/05/18 06:11:47;;;;;;;5.13;4.20;;;16.70;1.00;;;;;;5052445;28;20025;-63
2023/05/18 06:14:13;;;;;;;5.88;4.55;;;16.70;1.00;;;;;;5054231;28;20029;-63
2023/05/18 06:16:39;;;;;;;5.57;4.15;;;16.80;1.00;;;;;;5055051;28;20021;-63
2023/05/18 06:19:04;;;;;;;5.57;4.05;;;16.80;1.00;;;;;;5053892;28;20040;-63
2023/05/18 06:21:30;;;;;;;5.45;3.85;;;16.70;1.00;;;;;;5053249;28;20025;-63
2023/05/18 06:23:56;;;;;;;6.55;4.38;;;16.70;1.00;;;;;;5053921;28;20041;-64
2023/05/18 06:26:22;;;;;;;4.60;4.18;;;16.70;1.00;;;;;;5054148;28;20021;-63
2023/05/18 06:28:48;;;;;;;5.80;4.75;;;16.70;1.00;;;;;;5055515;28;20105;-63
2023/05/18 06:31:14;;;;;;;7.10;4.40;;;16.80;1.00;;;;;;5053118;28;20029;-64
2023/05/18 06:33:40;;;;;;;8.18;4.28;;;16.80;1.00;;;;;;5052114;28;20099;-63
2023/05/18 06:36:06;;;;;;;12.45;4.45;;;16.80;1.00;;;;;;5053403;28;20119;-63
2023/05/18 06:38:32;;;;;;;7.50;4.80;;;16.80;1.00;;;;;;5054729;28;20091;-63
2023/05/18 06:40:57;;;;;;;5.95;4.70;;;16.90;1.00;;;;;;5053353;28;20033;-64
2023/05/18 06:43:27;;;;;;;10.30;5.00;;;16.80;1.00;;;;;;5054363;28;20033;-63
2023/05/18 06:45:55;;;;;;;8.50;4.95;;;16.90;1.00;;;;;;5052702;28;20021;-63
2023/05/18 06:48:25;;;;;;;9.02;4.90;;;16.90;1.00;;;;;;5052393;28;20025;-64
2023/05/18 06:50:51;;;;;;;8.32;4.35;;;16.90;1.00;;;;;;5053638;28;20021;-64
2023/05/18 06:53:17;;;;;;;5.22;4.63;;;17.00;1.00;;;;;;5053322;28;20437;-63
2023/05/18 06:55:42;;;;;;;9.55;4.53;;;17.00;1.00;;;;;;5048701;28;20127;-63
2023/05/18 06:58:08;;;;;;;8.10;4.53;;;17.10;1.00;;;;;;5053240;28;20192;-63
2023/05/18 07:00:33;;;;;;;7.90;4.47;;;17.10;1.00;;;;;;5052107;28;20044;-63
2023/05/18 07:03:00;;;;;;;6.20;4.45;;;17.00;1.00;;;;;;5046164;28;20068;-63
2023/05/18 07:05:26;;;;;;;12.80;5.47;;;17.00;1.00;;;;;;5053393;28;20490;-63
2023/05/18 07:07:52;;;;;;;6.70;5.60;;;17.00;1.00;;;;;;5051703;28;20598;-63
2023/05/18 07:10:17;;;;;;;10.23;5.20;;;17.00;1.00;;;;;;5043356;28;20111;-63
2023/05/18 07:12:43;;;;;;;9.80;5.60;;;17.10;1.00;;;;;;5047312;28;20108;-63
2023/05/18 07:15:10;;;;;;;7.43;5.28;;;17.00;1.00;;;;;;5053749;28;20398;-63
2023/05/18 07:17:37;;;;;;;6.20;5.35;;;17.10;1.00;;;;;;5053877;28;20064;-63
2023/05/18 07:20:05;;;;;;;8.25;6.75;;;17.10;1.00;;;;;;5052204;28;20052;-63
2023/05/18 07:22:32;;;;;;;16.63;6.82;;;17.10;1.00;;;;;;5053982;28;20108;-63
2023/05/18 07:24:57;;;;;;;9.02;6.47;;;17.00;1.00;;;;;;5053341;28;20049;-63
2023/05/18 07:27:23;;;;;;;8.52;5.75;;;17.00;1.00;;;;;;5052246;28;20068;-63
2023/05/18 07:29:49;;;;;;;8.40;4.93;;;17.00;1.00;;;;;;5049471;28;20032;-63
2023/05/18 07:32:15;;;;;;;6.43;5.57;;;17.00;1.00;;;;;;5050240;28;20029;-63
2023/05/18 07:34:42;;;;;;;9.13;5.88;;;17.00;1.00;;;;;;5051136;28;20036;-63
2023/05/18 07:37:08;;;;;;;11.63;9.50;;;17.00;1.00;;;;;;5049298;28;20052;-63
2023/05/18 07:39:34;;;;;;;8.82;6.85;;;17.00;1.00;;;;;;5050872;28;20040;-63
2023/05/18 07:42:01;;;;;;;6.53;5.82;;;17.00;1.00;;;;;;5047094;28;20033;-63
2023/05/18 07:44:26;;;;;;;7.80;6.05;;;17.00;1.00;;;;;;5049683;28;20021;-64
2023/05/18 07:46:52;;;;;;;9.10;5.82;;;17.00;1.00;;;;;;5051309;28;20102;-64
2023/05/18 07:49:18;;;;;;;7.50;5.28;;;17.00;1.00;;;;;;5050366;28;20556;-63
2023/05/18 07:51:44;;;;;;;8.02;5.50;;;17.00;1.00;;;;;;5051011;28;20048;-63
2023/05/18 07:54:09;;;;;;;7.03;5.60;;;16.90;1.00;;;;;;5052947;28;20047;-63
2023/05/18 07:56:35;;;;;;;9.68;5.60;;;16.90;1.00;;;;;;5050734;28;20489;-63
2023/05/18 07:59:01;;;;;;;6.40;4.72;;;16.90;1.00;;;;;;5053307;28;20037;-63
2023/05/18 08:01:29;;;;;;;9.30;5.90;;;17.00;1.00;;;;;;5051672;28;20364;-63
2023/05/18 08:03:55;;;;;;;8.20;5.60;;;17.10;1.00;;;;;;5052172;28;20036;-63
2023/05/18 08:06:21;;;;;;;8.30;5.18;;;17.10;1.00;;;;;;5053475;28;20378;-63
2023/05/18 08:08:47;;;;;;;8.25;5.28;;;17.10;1.00;;;;;;5053144;28;20021;-64
2023/05/18 08:11:12;;;;;;;7.88;5.22;;;17.10;1.00;;;;;;5050559;28;20025;-63
2023/05/18 08:13:38;;;;;;;6.85;6.10;;;17.10;1.00;;;;;;5049590;28;20036;-63
2023/05/18 08:16:04;;;;;;;7.95;5.78;;;17.10;1.00;;;;;;5051509;28;20036;-63
2023/05/18 08:18:30;;;;;;;7.57;5.40;;;17.10;1.00;;;;;;5051820;28;20032;-64
2023/05/18 08:20:55;;;;;;;8.70;5.10;;;17.10;1.00;;;;;;5047505;28;20086;-63
2023/05/18 08:23:23;;;;;;;17.88;13.32;;;17.20;1.00;;;;;;5042455;28;20025;-63
2023/05/18 08:25:49;;;;;;;14.48;8.57;;;17.20;1.00;;;;;;5037684;28;20105;-63
2023/05/18 08:28:15;;;;;;;6.95;5.88;;;17.20;1.00;;;;;;5050679;28;20175;-63
2023/05/18 08:30:41;;;;;;;12.52;5.80;;;17.30;1.00;;;;;;5053128;28;20032;-63
2023/05/18 08:33:07;;;;;;;7.93;6.50;;;17.30;1.00;;;;;;5052439;28;20475;-63
2023/05/18 08:35:32;;;;;;;8.38;5.68;;;17.30;1.00;;;;;;5053205;28;20028;-63
2023/05/18 08:37:58;;;;;;;7.30;5.93;;;17.30;1.00;;;;;;5051162;28;20056;-64
2023/05/18 08:40:35;;;;;;;8.07;6.20;;;17.30;1.00;;;;;;5051546;28;20040;-63
2023/05/18 08:43:17;;;;;;;7.20;5.20;;;17.30;1.00;;;;;;5049217;28;20031;-63
2023/05/18 08:45:51;;;;;;;5.35;4.47;;;17.30;1.00;;;;;;5049401;28;20079;-63
2023/05/18 08:48:18;;;;;;;5.55;4.80;;;17.30;1.00;;;;;;5051335;28;20090;-63
2023/05/18 08:50:46;;;;;;;8.77;5.00;;;17.30;1.00;;;;;;5049559;28;20529;-63
2023/05/18 08:53:12;;;;;;;4.80;4.30;;;17.40;1.00;;;;;;5049181;28;20051;-63
2023/05/18 08:55:39;;;;;;;5.07;3.95;;;17.40;1.00;;;;;;5049468;28;20033;-63
2023/05/18 08:58:08;;;;;;;6.57;4.00;;;17.40;1.00;;;;;;5052169;28;20040;-63
2023/05/18 09:00:34;;;;;;;5.65;3.22;;;17.40;1.00;;;;;;5042849;28;20071;-63
2023/05/18 09:03:02;;;;;;;4.97;3.58;;;17.30;1.00;;;;;;5048438;28;20041;-63
2023/05/18 09:05:28;;;;;;;6.00;2.83;;;17.30;1.00;;;;;;5046694;28;20031;-63
2023/05/18 09:07:55;;;;;;;4.88;3.10;;;17.30;1.00;;;;;;5049473;28;20387;-63
2023/05/18 09:10:21;;;;;;;9.00;3.92;;;17.30;1.00;;;;;;5050492;28;20123;-63
2023/05/18 09:12:49;;;;;;;6.15;3.35;;;17.30;1.00;;;;;;5049284;28;20033;-63
2023/05/18 09:15:16;;;;;;;5.57;2.88;;;17.30;1.00;;;;;;5052290;28;20108;-63
2023/05/18 09:17:42;;;;;;;6.32;3.70;;;17.30;1.00;;;;;;5049486;28;20478;-63
2023/05/18 09:20:09;;;;;;;5.00;2.70;;;17.40;1.00;;;;;;5038710;28;20147;-63
2023/05/18 09:22:35;;;;;;;4.43;3.05;;;17.40;1.00;;;;;;5051114;28;20111;-63
2023/05/18 09:25:07;;;;;;;6.10;3.00;;;17.40;1.00;;;;;;5052241;28;20041;-63
2023/05/18 09:27:32;;;;;;;6.32;3.10;;;17.50;1.00;;;;;;5049101;28;20503;-63
2023/05/18 09:29:58;;;;;;;4.32;3.25;;;17.60;1.00;;;;;;5050139;28;20026;-63
2023/05/18 09:32:25;;;;;;;4.63;3.40;;;17.60;1.00;;;;;;5049427;28;20121;-63
2023/05/18 09:34:52;;;;;;;7.03;4.03;;;17.70;1.00;;;;;;5051656;28;20028;-63
2023/05/18 09:37:19;;;;;;;6.05;3.38;;;17.70;1.00;;;;;;5051111;28;20464;-63
2023/05/18 09:40:07;;;;;;;3.75;2.60;;;17.70;1.00;;;;;;5049199;28;20056;-63
2023/05/18 09:42:43;;;;;;;5.03;2.40;;;17.70;1.00;;;;;;5051421;28;20479;-63
2023/05/18 09:45:22;;;;;;;3.35;2.53;;;17.70;1.00;;;;;;5050754;28;20031;-64
2023/05/18 09:47:50;;;;;;;4.82;2.80;;;17.80;1.00;;;;;;5045770;28;20037;-63
2023/05/18 09:50:22;;;;;;;4.70;2.55;;;17.80;1.00;;;;;;5049887;28;20709;-63
2023/05/18 09:52:49;;;;;;;3.75;2.72;;;17.90;1.00;;;;;;5050636;28;20033;-63
2023/05/18 09:55:15;;;;;;;5.78;2.75;;;17.90;1.00;;;;;;5049683;28;20040;-63
2023/05/18 09:57:48;;;;;;;6.05;2.40;;;18.00;1.00;;;;;;5049977;28;20454;-63
2023/05/18 10:00:15;;;;;;;5.82;3.65;;;18.00;1.00;;;;;;5046376;28;20053;-63
2023/05/18 10:02:47;;;;;;;5.88;2.83;;;18.00;1.00;;;;;;5042345;28;20025;-63
2023/05/18 10:05:22;;;;;;;4.97;3.00;;;18.00;1.00;;;;;;5051684;28;20041;-63
2023/05/18 10:07:50;;;;;;;4.65;3.25;;;18.00;1.00;;;;;;5050280;28;20061;-63
2023/05/18 10:10:24;;;;;;;10.05;3.50;;;18.00;1.00;;;;;;5049413;28;20048;-63
2023/05/18 10:12:50;;;;;;;4.30;2.85;;;18.00;1.00;;;;;;5051568;28;20033;-63
2023/05/18 10:15:20;;;;;;;6.95;2.83;;;18.10;1.00;;;;;;5048992;28;20018;-63
2023/05/18 10:17:47;;;;;;;4.50;2.30;;;18.10;1.00;;;;;;5049017;28;20039;-63
2023/05/18 10:20:17;;;;;;;4.47;2.55;;;18.20;1.00;;;;;;5049942;28;20055;-63
2023/05/18 10:22:45;;;;;;;2.88;2.50;;;18.30;1.00;;;;;;5049900;28;20029;-63
2023/05/18 10:25:17;;;;;;;6.40;3.00;;;18.30;1.00;;;;;;5048674;28;20021;-63
2023/05/18 10:27:44;;;;;;;3.97;2.67;;;18.40;1.00;;;;;;5047760;28;20040;-63
2023/05/18 10:30:10;;;;;;;6.07;2.65;;;18.40;1.00;;;;;;5049267;28;20025;-63
2023/05/18 10:32:38;;;;;;;4.53;2.47;;;18.50;1.00;;;;;;5046846;28;20045;-63
2023/05/18 10:35:04;;;;;;;3.63;2.45;;;18.60;1.00;;;;;;5050220;28;20044;-63
2023/05/18 10:37:34;;;;;;;3.50;2.30;;;18.60;1.00;;;;;;5046169;28;20056;-63
2023/05/18 10:40:01;;;;;;;4.57;2.72;;;18.70;1.00;;;;;;5050744;28;20078;-63
2023/05/18 10:42:29;;;;;;;6.18;2.75;;;18.70;1.00;;;;;;5053525;28;20128;-64
2023/05/18 10:44:56;;;;;;;6.30;3.22;;;18.80;1.00;;;;;;5051994;28;20029;-63
2023/05/18 10:47:25;;;;;;;3.92;2.40;;;18.80;1.00;;;;;;5049158;28;20029;-63
2023/05/18 10:49:51;;;;;;;6.05;3.20;;;18.80;1.00;;;;;;5053907;28;20017;-63
2023/05/18 10:52:17;;;;;;;4.28;2.55;;;18.90;1.00;;;;;;5051407;28;20036;-63
2023/05/18 10:54:43;;;;;;;4.13;2.10;;;18.90;1.00;;;;;;5053673;28;20071;-63
2023/05/18 10:57:15;;;;;;;3.30;2.75;;;18.90;1.00;;;;;;5053508;28;20068;-63
2023/05/18 10:59:43;;;;;;;3.25;2.80;;;18.90;1.00;;;;;;5054742;28;20033;-63
2023/05/18 11:02:19;;;;;;;4.65;2.90;;;19.00;1.00;;;;;;5050952;28;20025;-63
2023/05/18 11:04:46;;;;;;;4.07;2.80;;;19.10;1.00;;;;;;5052583;28;20025;-63
2023/05/18 11:07:13;;;;;;;4.57;2.72;;;19.20;1.00;;;;;;5053598;28;20037;-63
2023/05/18 11:09:42;;;;;;;6.78;3.50;;;19.30;1.00;;;;;;5054070;28;20044;-63
2023/05/18 11:12:13;;;;;;;4.53;2.97;;;19.30;1.00;;;;;;5051607;28;20043;-64
2023/05/18 11:14:49;;;;;;;3.80;2.67;;;19.40;1.00;;;;;;5053836;28;20094;-63
2023/05/18 11:17:20;;;;;;;6.88;3.17;;;19.40;1.00;;;;;;5053343;28;20119;-63
2023/05/18 11:20:04;;;;;;;8.02;3.90;;;19.30;1.00;;;;;;5053100;28;20040;-63
2023/05/18 11:23:02;;;;;;;4.18;3.20;;;19.30;1.00;;;;;;5054414;28;20098;-63
2023/05/18 11:25:37;;;;;;;5.35;2.40;;;19.30;1.00;;;;;;5034288;28;20041;-61
2023/05/18 11:28:06;;;;;;;6.30;3.03;;;19.30;1.00;;;;;;5052362;28;20167;-61
2023/05/18 11:30:32;;;;;;;3.42;2.55;;;19.50;1.00;;;;;;5053944;28;20474;-62
2023/05/18 11:33:09;;;;;;;8.10;3.70;;;19.60;1.00;;;;;;5050819;28;20036;-63
2023/05/18 11:36:10;;;;;;;5.72;3.88;;;19.80;1.00;;;;;;5053460;28;20391;-62
2023/05/18 11:38:48;;;;;;;4.82;3.17;;;19.90;1.00;;;;;;5048969;28;20033;-62
2023/05/18 11:41:45;;;;;;;4.53;3.80;;;20.30;1.00;;;;;;5053558;28;20096;-62
2023/05/18 11:44:11;;;;;;;3.60;2.97;;;20.60;1.00;;;;;;5049340;28;20083;-63
2023/05/18 11:46:49;;;;;;;3.42;3.13;;;20.90;1.00;;;;;;5052973;28;20029;-62
2023/05/18 11:49:16;;;;;;;5.05;3.10;;;21.10;1.00;;;;;;5043429;28;20035;-62
2023/05/18 11:52:00;;;;;;;4.45;3.22;;;21.20;1.00;;;;;;5050964;28;20029;-63
2023/05/18 11:54:26;;;;;;;4.17;3.23;;;22.40;1.00;;;;;;5052270;28;20052;-63
2023/05/18 11:56:52;;;;;;;4.13;3.20;;;23.20;1.00;;;;;;5049655;28;20781;-62
2023/05/18 11:59:30;;;;;;;4.60;3.33;;;23.30;1.00;;;;;;5053773;28;20039;-63
2023/05/18 12:01:58;;;;;;;4.28;3.15;;;23.20;1.00;;;;;;5045819;28;20036;-62
2023/05/18 12:04:24;;;;;;;6.78;3.65;;;23.00;1.00;;;;;;5051390;28;20057;-62
2023/05/18 12:06:51;;;;;;;3.40;3.10;;;24.80;99.90;;;;;;5050751;28;20027;-63
2023/05/18 12:09:18;;;;;;;4.00;2.90;;;26.70;99.90;;;;;;5053217;28;20025;-63
2023/05/18 12:11:44;;;;;;;6.90;3.33;;;26.40;99.90;;;;;;5052347;28;20108;-63
2023/05/18 12:14:11;;;;;;;4.15;2.78;;;26.10;99.90;;;;;;5053510;28;20449;-63
2023/05/18 12:16:39;;;;;;;4.15;2.85;;;25.10;99.90;;;;;;5052169;28;20051;-64
2023/05/18 12:19:06;;;;;;;5.80;2.88;;;24.60;99.90;;;;;;5050924;28;20052;-63
2023/05/18 12:21:36;;;;;;;4.20;2.90;;;24.90;99.90;;;;;;5050071;28;20060;-63
2023/05/18 12:24:02;;;;;;;4.68;2.92;;;24.60;99.90;;;;;;5053179;28;20021;-64
2023/05/18 12:26:29;;;;;;;5.50;3.45;;;24.10;99.90;;;;;;5051564;28;20532;-64
2023/05/18 12:28:55;;;;;;;3.65;2.90;;;24.10;99.90;;;;;;5050667;28;20025;-64
2023/05/18 12:31:22;;;;;;;5.63;3.35;;;24.10;99.90;;;;;;5051032;28;20037;-64
2023/05/18 12:33:48;;;;;;;5.50;3.25;;;23.90;99.90;;;;;;5052971;28;20025;-64
2023/05/18 12:36:14;;;;;;;5.75;3.08;;;23.60;99.90;;;;;;5050039;28;20091;-64
2023/05/18 12:38:40;;;;;;;5.25;2.80;;;23.30;99.90;;;;;;5052049;28;20029;-63
2023/05/18 12:41:06;;;;;;;4.32;2.95;;;23.30;99.90;;;;;;5049829;28;20021;-64
2023/05/18 12:43:35;;;;;;;4.18;2.80;;;23.30;99.90;;;;;;5052825;28;20036;-63
2023/05/18 12:46:04;;;;;;;4.75;2.55;;;23.90;99.90;;;;;;5051189;28;20025;-64
2023/05/18 12:48:37;;;;;;;4.38;2.80;;;23.70;99.90;;;;;;5051611;28;20104;-64
2023/05/18 12:51:03;;;;;;;3.80;2.75;;;23.90;99.90;;;;;;5046563;28;20505;-64
2023/05/18 12:53:42;;;;;;;2.97;2.70;;;24.20;99.90;;;;;;5050044;28;20068;-64